sensor_id;sensor_type;location;lat;lon;timestamp;temperature;humidity
55064;DHT22;40963;52.168;21.296;2022-08-03T00:01:43;16.70;99.90
55064;DHT22;40963;52.168;21.296;2022-08-03T00:04:10;16.70;99.90
55064;DHT22;40963;52.168;21.296;2022-08-03T00:06:36;16.70;99.90
55064;DHT22;40963;52.168;21.296;2022-08-03T00:09:03;16.70;99.90
55064;DHT22;40963;52.168;21.296;2022-08-03T00:11:29;16.70;99.90
55064;DHT22;40963;52.168;21.296;2022-08-03T00:13:55;16.60;99.90
55064;DHT22;40963;52.168;21.296;2022-08-03T00:16:20;16.60;99.90
55064;DHT22;40963;52.168;21.296;2022-08-03T00:18:46;16.60;99.90
55064;DHT22;40963;52.168;21.296;2022-08-03T00:21:11;16.60;99.90
55064;DHT22;40963;52.168;21.296;2022-08-03T00:23:37;16.50;99.90
55064;DHT22;40963;52.168;21.296;2022-08-03T00:26:03;16.50;99.90
55064;DHT22;40963;52.168;21.296;2022-08-03T00:28:29;16.40;99.90
55064;DHT22;40963;52.168;21.296;2022-08-03T00:30:54;16.40;99.90
55064;DHT22;40963;52.168;21.296;2022-08-03T00:33:21;16.40;99.90
55064;DHT22;40963;52.168;21.296;2022-08-03T00:35:47;16.40;99.90
55064;DHT22;40963;52.168;21.296;2022-08-03T00:38:13;16.30;99.90
55064;DHT22;40963;52.168;21.296;2022-08-03T00:40:39;16.30;99.90
55064;DHT22;40963;52.168;21.296;2022-08-03T00:43:06;16.30;99.90
55064;DHT22;40963;52.168;21.296;2022-08-03T00:45:35;16.30;99.90
55064;DHT22;40963;52.168;21.296;2022-08-03T00:48:01;16.30;99.90
55064;DHT22;40963;52.168;21.296;2022-08-03T00:50:29;16.30;99.90
55064;DHT22;40963;52.168;21.296;2022-08-03T00:52:58;16.20;99.90
55064;DHT22;40963;52.168;21.296;2022-08-03T00:55:24;16.20;99.90
55064;DHT22;40963;52.168;21.296;2022-08-03T00:57:51;16.20;99.90
55064;DHT22;40963;52.168;21.296;2022-08-03T01:00:24;16.20;99.90
55064;DHT22;40963;52.168;21.296;2022-08-03T01:02:51;16.10;99.90
55064;DHT22;40963;52.168;21.296;2022-08-03T01:05:18;16.10;99.90
55064;DHT22;40963;52.168;21.296;2022-08-03T01:08:17;16.10;99.90
55064;DHT22;40963;52.168;21.296;2022-08-03T01:10:59;16.00;99.90
55064;DHT22;40963;52.168;21.296;2022-08-03T01:16:55;16.00;99.90
55064;DHT22;40963;52.168;21.296;2022-08-03T01:24:49;15.90;99.90
55064;DHT22;40963;52.168;21.296;2022-08-03T01:27:37;15.90;99.90
55064;DHT22;40963;52.168;21.296;2022-08-03T01:30:09;15.90;99.90
55064;DHT22;40963;52.168;21.296;2022-08-03T01:35:21;15.80;99.90
55064;DHT22;40963;52.168;21.296;2022-08-03T01:38:01;15.80;99.90
55064;DHT22;40963;52.168;21.296;2022-08-03T01:40:29;15.80;99.90
55064;DHT22;40963;52.168;21.296;2022-08-03T01:42:58;15.80;99.90
55064;DHT22;40963;52.168;21.296;2022-08-03T01:45:25;15.80;99.90
55064;DHT22;40963;52.168;21.296;2022-08-03T01:47:52;15.90;99.90
55064;DHT22;40963;52.168;21.296;2022-08-03T01:50:25;15.90;99.90
55064;DHT22;40963;52.168;21.296;2022-08-03T01:52:52;15.90;99.90
55064;DHT22;40963;52.168;21.296;2022-08-03T01:55:19;15.90;99.90
55064;DHT22;40963;52.168;21.296;2022-08-03T01:57:47;15.90;99.90
55064;DHT22;40963;52.168;21.296;2022-08-03T02:00:13;15.90;99.90
55064;DHT22;40963;52.168;21.296;2022-08-03T02:02:41;15.90;99.90
55064;DHT22;40963;52.168;21.296;2022-08-03T02:05:10;15.90;99.90
55064;DHT22;40963;52.168;21.296;2022-08-03T02:07:39;16.00;99.90
55064;DHT22;40963;52.168;21.296;2022-08-03T02:10:05;16.00;99.90
55064;DHT22;40963;52.168;21.296;2022-08-03T02:12:32;16.00;99.90
55064;DHT22;40963;52.168;21.296;2022-08-03T02:14:59;15.90;99.90
55064;DHT22;40963;52.168;21.296;2022-08-03T02:17:27;16.00;99.90
55064;DHT22;40963;52.168;21.296;2022-08-03T02:19:55;16.00;99.90
55064;DHT22;40963;52.168;21.296;2022-08-03T02:22:23;16.00;99.90
55064;DHT22;40963;52.168;21.296;2022-08-03T02:24:50;16.00;99.90
55064;DHT22;40963;52.168;21.296;2022-08-03T02:27:26;16.00;99.90
55064;DHT22;40963;52.168;21.296;2022-08-03T02:30:02;16.00;99.90
55064;DHT22;40963;52.168;21.296;2022-08-03T02:32:38;16.00;99.90
55064;DHT22;40963;52.168;21.296;2022-08-03T02:35:08;16.00;99.90
55064;DHT22;40963;52.168;21.296;2022-08-03T02:37:40;16.00;99.90
55064;DHT22;40963;52.168;21.296;2022-08-03T02:40:07;16.00;99.90
55064;DHT22;40963;52.168;21.296;2022-08-03T02:42:34;16.00;99.90
55064;DHT22;40963;52.168;21.296;2022-08-03T02:45:05;16.00;99.90
55064;DHT22;40963;52.168;21.296;2022-08-03T02:47:34;16.00;99.90
55064;DHT22;40963;52.168;21.296;2022-08-03T02:50:01;16.00;99.90
55064;DHT22;40963;52.168;21.296;2022-08-03T02:52:29;16.00;99.90
55064;DHT22;40963;52.168;21.296;2022-08-03T02:54:59;16.00;99.90
55064;DHT22;40963;52.168;21.296;2022-08-03T02:57:27;16.00;99.90
55064;DHT22;40963;52.168;21.296;2022-08-03T02:59:54;16.00;99.90
55064;DHT22;40963;52.168;21.296;2022-08-03T03:02:21;15.90;99.90
55064;DHT22;40963;52.168;21.296;2022-08-03T03:04:49;15.90;99.90
55064;DHT22;40963;52.168;21.296;2022-08-03T03:07:16;15.90;99.90
55064;DHT22;40963;52.168;21.296;2022-08-03T03:09:42;15.90;99.90
55064;DHT22;40963;52.168;21.296;2022-08-03T03:12:10;15.80;99.90
55064;DHT22;40963;52.168;21.296;2022-08-03T03:14:37;15.80;99.90
55064;DHT22;40963;52.168;21.296;2022-08-03T03:17:03;15.80;99.90
55064;DHT22;40963;52.168;21.296;2022-08-03T03:19:31;15.80;99.90
55064;DHT22;40963;52.168;21.296;2022-08-03T03:21:59;15.80;99.90
55064;DHT22;40963;52.168;21.296;2022-08-03T03:24:28;15.80;99.90
55064;DHT22;40963;52.168;21.296;2022-08-03T03:26:54;15.80;99.90
55064;DHT22;40963;52.168;21.296;2022-08-03T03:29:21;15.80;99.90
55064;DHT22;40963;52.168;21.296;2022-08-03T03:31:47;15.80;99.90
55064;DHT22;40963;52.168;21.296;2022-08-03T03:34:13;15.80;99.90
55064;DHT22;40963;52.168;21.296;2022-08-03T03:36:39;15.80;99.90
55064;DHT22;40963;52.168;21.296;2022-08-03T03:39:05;15.80;99.90
55064;DHT22;40963;52.168;21.296;2022-08-03T03:41:30;15.80;99.90
55064;DHT22;40963;52.168;21.296;2022-08-03T03:43:57;15.90;99.90
55064;DHT22;40963;52.168;21.296;2022-08-03T03:46:22;15.80;99.90
55064;DHT22;40963;52.168;21.296;2022-08-03T03:48:48;15.90;99.90
55064;DHT22;40963;52.168;21.296;2022-08-03T03:51:14;15.90;99.90
55064;DHT22;40963;52.168;21.296;2022-08-03T03:53:48;15.90;99.90
55064;DHT22;40963;52.168;21.296;2022-08-03T03:56:18;15.90;99.90
55064;DHT22;40963;52.168;21.296;2022-08-03T03:58:43;16.00;99.90
55064;DHT22;40963;52.168;21.296;2022-08-03T04:01:09;16.00;99.90
55064;DHT22;40963;52.168;21.296;2022-08-03T04:03:35;16.00;99.90
55064;DHT22;40963;52.168;21.296;2022-08-03T04:06:00;16.10;99.90
55064;DHT22;40963;52.168;21.296;2022-08-03T04:08:44;16.10;99.90
55064;DHT22;40963;52.168;21.296;2022-08-03T04:11:41;16.10;99.90
55064;DHT22;40963;52.168;21.296;2022-08-03T04:14:28;16.20;99.90
55064;DHT22;40963;52.168;21.296;2022-08-03T04:17:02;16.20;99.90
55064;DHT22;40963;52.168;21.296;2022-08-03T04:19:51;16.20;99.90
55064;DHT22;40963;52.168;21.296;2022-08-03T04:22:21;16.30;99.90
55064;DHT22;40963;52.168;21.296;2022-08-03T04:24:57;16.30;99.90
55064;DHT22;40963;52.168;21.296;2022-08-03T04:27:27;16.40;99.90
55064;DHT22;40963;52.168;21.296;2022-08-03T04:29:54;16.40;99.90
55064;DHT22;40963;52.168;21.296;2022-08-03T04:32:22;16.50;99.90
55064;DHT22;40963;52.168;21.296;2022-08-03T04:34:50;16.60;99.90
55064;DHT22;40963;52.168;21.296;2022-08-03T04:37:39;16.60;99.90
55064;DHT22;40963;52.168;21.296;2022-08-03T04:40:09;16.70;99.90
55064;DHT22;40963;52.168;21.296;2022-08-03T04:42:36;16.80;99.90
55064;DHT22;40963;52.168;21.296;2022-08-03T04:45:04;16.80;99.90
55064;DHT22;40963;52.168;21.296;2022-08-03T04:47:33;16.90;99.90
55064;DHT22;40963;52.168;21.296;2022-08-03T04:50:01;17.00;99.90
55064;DHT22;40963;52.168;21.296;2022-08-03T04:52:28;17.10;99.90
55064;DHT22;40963;52.168;21.296;2022-08-03T04:54:54;17.20;99.90
55064;DHT22;40963;52.168;21.296;2022-08-03T04:57:21;17.30;99.90
55064;DHT22;40963;52.168;21.296;2022-08-03T04:59:46;17.40;99.90
55064;DHT22;40963;52.168;21.296;2022-08-03T05:02:13;17.40;99.90
55064;DHT22;40963;52.168;21.296;2022-08-03T05:04:40;17.50;99.90
55064;DHT22;40963;52.168;21.296;2022-08-03T05:07:14;17.60;99.90
55064;DHT22;40963;52.168;21.296;2022-08-03T05:09:40;17.70;99.90
55064;DHT22;40963;52.168;21.296;2022-08-03T05:12:06;17.80;99.90
55064;DHT22;40963;52.168;21.296;2022-08-03T05:14:32;18.00;99.90
55064;DHT22;40963;52.168;21.296;2022-08-03T05:16:58;18.10;99.90
55064;DHT22;40963;52.168;21.296;2022-08-03T05:19:24;18.10;99.90
55064;DHT22;40963;52.168;21.296;2022-08-03T05:21:50;18.30;99.90
55064;DHT22;40963;52.168;21.296;2022-08-03T05:24:15;18.30;99.90
55064;DHT22;40963;52.168;21.296;2022-08-03T05:26:41;18.50;99.90
55064;DHT22;40963;52.168;21.296;2022-08-03T05:29:07;18.60;99.90
55064;DHT22;40963;52.168;21.296;2022-08-03T05:31:32;18.70;99.90
55064;DHT22;40963;52.168;21.296;2022-08-03T05:33:58;18.80;99.90
55064;DHT22;40963;52.168;21.296;2022-08-03T05:36:24;18.90;99.90
55064;DHT22;40963;52.168;21.296;2022-08-03T05:38:50;19.00;99.90
55064;DHT22;40963;52.168;21.296;2022-08-03T05:41:15;19.10;99.90
55064;DHT22;40963;52.168;21.296;2022-08-03T05:43:41;19.20;99.90
55064;DHT22;40963;52.168;21.296;2022-08-03T05:46:07;19.30;99.90
55064;DHT22;40963;52.168;21.296;2022-08-03T05:48:32;19.40;99.90
55064;DHT22;40963;52.168;21.296;2022-08-03T05:50:58;19.50;99.90
55064;DHT22;40963;52.168;21.296;2022-08-03T05:53:23;19.50;99.90
55064;DHT22;40963;52.168;21.296;2022-08-03T05:55:50;19.60;99.90
55064;DHT22;40963;52.168;21.296;2022-08-03T05:58:16;19.70;99.90
55064;DHT22;40963;52.168;21.296;2022-08-03T06:00:42;19.70;99.90
55064;DHT22;40963;52.168;21.296;2022-08-03T06:03:07;19.80;99.90
55064;DHT22;40963;52.168;21.296;2022-08-03T06:05:33;19.90;99.90
55064;DHT22;40963;52.168;21.296;2022-08-03T06:08:01;19.90;99.90
55064;DHT22;40963;52.168;21.296;2022-08-03T06:10:27;20.00;99.90
55064;DHT22;40963;52.168;21.296;2022-08-03T06:12:53;20.00;99.90
55064;DHT22;40963;52.168;21.296;2022-08-03T06:15:18;20.10;99.90
55064;DHT22;40963;52.168;21.296;2022-08-03T06:17:45;20.10;99.90
55064;DHT22;40963;52.168;21.296;2022-08-03T06:20:11;20.20;99.90
55064;DHT22;40963;52.168;21.296;2022-08-03T06:22:37;20.20;99.90
55064;DHT22;40963;52.168;21.296;2022-08-03T06:25:03;20.20;99.90
55064;DHT22;40963;52.168;21.296;2022-08-03T06:27:29;20.20;99.90
55064;DHT22;40963;52.168;21.296;2022-08-03T06:29:55;20.30;99.90
55064;DHT22;40963;52.168;21.296;2022-08-03T06:32:21;20.30;99.90
55064;DHT22;40963;52.168;21.296;2022-08-03T06:34:47;20.30;99.90
55064;DHT22;40963;52.168;21.296;2022-08-03T06:37:13;20.40;99.90
55064;DHT22;40963;52.168;21.296;2022-08-03T06:39:39;20.40;99.90
55064;DHT22;40963;52.168;21.296;2022-08-03T06:42:04;20.40;99.90
55064;DHT22;40963;52.168;21.296;2022-08-03T06:44:30;20.50;99.90
55064;DHT22;40963;52.168;21.296;2022-08-03T06:46:56;20.60;99.90
55064;DHT22;40963;52.168;21.296;2022-08-03T06:49:22;20.70;99.90
55064;DHT22;40963;52.168;21.296;2022-08-03T06:51:47;20.80;99.90
55064;DHT22;40963;52.168;21.296;2022-08-03T06:54:15;20.90;99.90
55064;DHT22;40963;52.168;21.296;2022-08-03T06:56:40;21.00;99.90
55064;DHT22;40963;52.168;21.296;2022-08-03T06:59:06;21.10;99.90
55064;DHT22;40963;52.168;21.296;2022-08-03T07:01:32;21.20;99.90
55064;DHT22;40963;52.168;21.296;2022-08-03T07:03:57;21.30;99.90
55064;DHT22;40963;52.168;21.296;2022-08-03T07:06:24;21.30;99.90
55064;DHT22;40963;52.168;21.296;2022-08-03T07:08:50;21.30;99.90
55064;DHT22;40963;52.168;21.296;2022-08-03T07:11:16;21.40;99.90
55064;DHT22;40963;52.168;21.296;2022-08-03T07:13:41;21.40;99.90
55064;DHT22;40963;52.168;21.296;2022-08-03T07:16:07;21.50;99.80
55064;DHT22;40963;52.168;21.296;2022-08-03T07:18:37;21.60;99.70
55064;DHT22;40963;52.168;21.296;2022-08-03T07:21:03;21.60;99.60
55064;DHT22;40963;52.168;21.296;2022-08-03T07:23:28;21.60;99.50
55064;DHT22;40963;52.168;21.296;2022-08-03T07:25:54;21.60;99.40
55064;DHT22;40963;52.168;21.296;2022-08-03T07:28:20;21.70;99.30
55064;DHT22;40963;52.168;21.296;2022-08-03T07:30:45;21.70;99.30
55064;DHT22;40963;52.168;21.296;2022-08-03T07:33:11;21.70;99.30
55064;DHT22;40963;52.168;21.296;2022-08-03T07:35:37;21.70;99.40
55064;DHT22;40963;52.168;21.296;2022-08-03T07:38:04;21.80;99.40
55064;DHT22;40963;52.168;21.296;2022-08-03T07:40:30;21.80;99.40
55064;DHT22;40963;52.168;21.296;2022-08-03T07:42:56;21.80;99.40
55064;DHT22;40963;52.168;21.296;2022-08-03T07:45:22;21.80;99.40
55064;DHT22;40963;52.168;21.296;2022-08-03T07:47:49;21.90;99.50
55064;DHT22;40963;52.168;21.296;2022-08-03T07:50:14;21.90;99.60
55064;DHT22;40963;52.168;21.296;2022-08-03T07:52:40;22.00;99.70
55064;DHT22;40963;52.168;21.296;2022-08-03T07:55:21;22.00;99.90
55064;DHT22;40963;52.168;21.296;2022-08-03T07:58:02;22.00;99.90
55064;DHT22;40963;52.168;21.296;2022-08-03T08:00:28;22.00;99.80
55064;DHT22;40963;52.168;21.296;2022-08-03T08:02:54;21.90;99.90
55064;DHT22;40963;52.168;21.296;2022-08-03T08:05:19;22.00;99.90
55064;DHT22;40963;52.168;21.296;2022-08-03T08:07:45;22.00;99.90
55064;DHT22;40963;52.168;21.296;2022-08-03T08:10:11;22.00;99.90
55064;DHT22;40963;52.168;21.296;2022-08-03T08:12:37;22.00;99.90
55064;DHT22;40963;52.168;21.296;2022-08-03T08:15:03;22.00;99.80
55064;DHT22;40963;52.168;21.296;2022-08-03T08:17:29;21.90;99.60
55064;DHT22;40963;52.168;21.296;2022-08-03T08:19:55;22.00;99.40
55064;DHT22;40963;52.168;21.296;2022-08-03T08:22:21;22.00;99.20
55064;DHT22;40963;52.168;21.296;2022-08-03T08:24:47;22.00;99.10
55064;DHT22;40963;52.168;21.296;2022-08-03T08:27:14;22.00;99.00
55064;DHT22;40963;52.168;21.296;2022-08-03T08:29:40;22.10;99.00
55064;DHT22;40963;52.168;21.296;2022-08-03T08:32:05;22.20;99.00
55064;DHT22;40963;52.168;21.296;2022-08-03T08:34:31;22.30;99.00
55064;DHT22;40963;52.168;21.296;2022-08-03T08:36:57;22.40;98.90
55064;DHT22;40963;52.168;21.296;2022-08-03T08:39:23;22.60;98.50
55064;DHT22;40963;52.168;21.296;2022-08-03T08:41:51;22.70;98.10
55064;DHT22;40963;52.168;21.296;2022-08-03T08:44:17;22.80;97.50
55064;DHT22;40963;52.168;21.296;2022-08-03T08:46:43;22.90;96.90
55064;DHT22;40963;52.168;21.296;2022-08-03T08:49:09;23.00;96.30
55064;DHT22;40963;52.168;21.296;2022-08-03T08:51:38;23.10;95.90
55064;DHT22;40963;52.168;21.296;2022-08-03T08:54:06;23.30;95.80
55064;DHT22;40963;52.168;21.296;2022-08-03T08:56:33;23.50;95.50
55064;DHT22;40963;52.168;21.296;2022-08-03T08:59:00;23.60;94.70
55064;DHT22;40963;52.168;21.296;2022-08-03T09:01:27;23.70;94.60
55064;DHT22;40963;52.168;21.296;2022-08-03T09:03:53;23.90;94.80
55064;DHT22;40963;52.168;21.296;2022-08-03T09:06:20;24.10;94.50
55064;DHT22;40963;52.168;21.296;2022-08-03T09:08:46;24.20;94.10
55064;DHT22;40963;52.168;21.296;2022-08-03T09:11:12;24.40;93.90
55064;DHT22;40963;52.168;21.296;2022-08-03T09:13:37;24.50;93.30
55064;DHT22;40963;52.168;21.296;2022-08-03T09:16:19;24.60;92.60
55064;DHT22;40963;52.168;21.296;2022-08-03T09:18:49;24.70;91.60
55064;DHT22;40963;52.168;21.296;2022-08-03T09:21:27;24.80;91.20
55064;DHT22;40963;52.168;21.296;2022-08-03T09:23:58;24.90;90.70
55064;DHT22;40963;52.168;21.296;2022-08-03T09:26:26;25.00;89.80
55064;DHT22;40963;52.168;21.296;2022-08-03T09:29:04;25.00;88.30
55064;DHT22;40963;52.168;21.296;2022-08-03T09:33:57;24.90;86.90
55064;DHT22;40963;52.168;21.296;2022-08-03T09:39:03;24.80;83.10
55064;DHT22;40963;52.168;21.296;2022-08-03T09:41:31;24.80;81.90
55064;DHT22;40963;52.168;21.296;2022-08-03T09:43:56;24.90;82.20
55064;DHT22;40963;52.168;21.296;2022-08-03T09:46:22;24.90;81.40
55064;DHT22;40963;52.168;21.296;2022-08-03T09:48:48;25.00;81.30
55064;DHT22;40963;52.168;21.296;2022-08-03T09:51:13;25.10;81.80
55064;DHT22;40963;52.168;21.296;2022-08-03T09:53:46;25.30;79.80
55064;DHT22;40963;52.168;21.296;2022-08-03T09:56:12;25.40;78.60
55064;DHT22;40963;52.168;21.296;2022-08-03T09:58:45;25.50;78.60
55064;DHT22;40963;52.168;21.296;2022-08-03T10:01:11;25.60;78.00
55064;DHT22;40963;52.168;21.296;2022-08-03T10:03:38;25.70;76.30
55064;DHT22;40963;52.168;21.296;2022-08-03T10:06:15;25.60;74.40
55064;DHT22;40963;52.168;21.296;2022-08-03T10:08:41;25.60;73.90
55064;DHT22;40963;52.168;21.296;2022-08-03T10:11:06;25.50;73.70
55064;DHT22;40963;52.168;21.296;2022-08-03T10:13:32;25.50;74.30
55064;DHT22;40963;52.168;21.296;2022-08-03T10:15:58;25.50;74.20
55064;DHT22;40963;52.168;21.296;2022-08-03T10:18:24;25.50;73.50
55064;DHT22;40963;52.168;21.296;2022-08-03T10:20:57;25.50;73.60
55064;DHT22;40963;52.168;21.296;2022-08-03T10:23:26;25.40;74.00
55064;DHT22;40963;52.168;21.296;2022-08-03T10:25:57;25.40;73.90
55064;DHT22;40963;52.168;21.296;2022-08-03T10:28:36;25.30;73.70
55064;DHT22;40963;52.168;21.296;2022-08-03T10:31:04;25.40;74.40
55064;DHT22;40963;52.168;21.296;2022-08-03T10:33:42;25.50;75.90
55064;DHT22;40963;52.168;21.296;2022-08-03T10:36:08;25.60;74.90
55064;DHT22;40963;52.168;21.296;2022-08-03T10:38:39;25.80;74.50
55064;DHT22;40963;52.168;21.296;2022-08-03T10:41:07;25.90;73.90
55064;DHT22;40963;52.168;21.296;2022-08-03T10:44:08;26.10;73.50
55064;DHT22;40963;52.168;21.296;2022-08-03T10:46:35;26.20;72.30
55064;DHT22;40963;52.168;21.296;2022-08-03T10:49:04;26.30;72.00
55064;DHT22;40963;52.168;21.296;2022-08-03T10:51:31;26.30;70.50
55064;DHT22;40963;52.168;21.296;2022-08-03T10:53:58;26.20;70.00
55064;DHT22;40963;52.168;21.296;2022-08-03T11:00:09;26.40;70.20
55064;DHT22;40963;52.168;21.296;2022-08-03T11:03:04;26.50;70.10
55064;DHT22;40963;52.168;21.296;2022-08-03T11:05:33;26.70;69.20
55064;DHT22;40963;52.168;21.296;2022-08-03T11:08:28;26.70;68.80
55064;DHT22;40963;52.168;21.296;2022-08-03T11:11:00;26.90;67.50
55064;DHT22;40963;52.168;21.296;2022-08-03T11:13:28;27.10;66.70
55064;DHT22;40963;52.168;21.296;2022-08-03T11:15:58;27.30;65.90
55064;DHT22;40963;52.168;21.296;2022-08-03T11:18:24;27.40;65.10
55064;DHT22;40963;52.168;21.296;2022-08-03T11:20:58;27.50;64.30
55064;DHT22;40963;52.168;21.296;2022-08-03T11:26:19;27.60;62.80
55064;DHT22;40963;52.168;21.296;2022-08-03T11:28:47;27.60;62.50
55064;DHT22;40963;52.168;21.296;2022-08-03T11:36:30;27.90;62.90
55064;DHT22;40963;52.168;21.296;2022-08-03T11:39:14;27.90;62.70
55064;DHT22;40963;52.168;21.296;2022-08-03T11:41:40;27.70;62.50
55064;DHT22;40963;52.168;21.296;2022-08-03T11:44:06;27.70;62.70
55064;DHT22;40963;52.168;21.296;2022-08-03T11:46:41;27.70;62.50
55064;DHT22;40963;52.168;21.296;2022-08-03T11:49:07;27.60;63.00
55064;DHT22;40963;52.168;21.296;2022-08-03T11:51:32;27.60;63.00
55064;DHT22;40963;52.168;21.296;2022-08-03T11:54:03;27.50;63.10
55064;DHT22;40963;52.168;21.296;2022-08-03T11:56:48;27.30;63.00
55064;DHT22;40963;52.168;21.296;2022-08-03T11:59:15;27.20;62.90
55064;DHT22;40963;52.168;21.296;2022-08-03T12:01:43;27.00;63.20
55064;DHT22;40963;52.168;21.296;2022-08-03T12:04:10;26.90;63.20
55064;DHT22;40963;52.168;21.296;2022-08-03T12:06:36;26.70;63.20
55064;DHT22;40963;52.168;21.296;2022-08-03T12:09:20;26.70;63.90
55064;DHT22;40963;52.168;21.296;2022-08-03T12:11:50;26.70;64.50
55064;DHT22;40963;52.168;21.296;2022-08-03T12:14:17;26.70;64.70
55064;DHT22;40963;52.168;21.296;2022-08-03T12:16:47;26.90;64.90
55064;DHT22;40963;52.168;21.296;2022-08-03T12:19:13;27.00;64.70
55064;DHT22;40963;52.168;21.296;2022-08-03T12:22:05;27.10;63.80
55064;DHT22;40963;52.168;21.296;2022-08-03T12:24:42;27.10;63.40
55064;DHT22;40963;52.168;21.296;2022-08-03T12:27:08;27.10;63.40
55064;DHT22;40963;52.168;21.296;2022-08-03T12:29:34;27.10;64.50
55064;DHT22;40963;52.168;21.296;2022-08-03T12:32:00;27.10;64.50
55064;DHT22;40963;52.168;21.296;2022-08-03T12:34:48;27.00;63.80
55064;DHT22;40963;52.168;21.296;2022-08-03T12:37:18;26.90;62.90
55064;DHT22;40963;52.168;21.296;2022-08-03T12:39:52;26.80;63.40
55064;DHT22;40963;52.168;21.296;2022-08-03T12:42:18;26.80;63.40
55064;DHT22;40963;52.168;21.296;2022-08-03T12:44:44;26.70;63.40
55064;DHT22;40963;52.168;21.296;2022-08-03T12:47:11;26.70;63.40
55064;DHT22;40963;52.168;21.296;2022-08-03T12:49:50;26.60;63.40
55064;DHT22;40963;52.168;21.296;2022-08-03T12:52:19;26.50;63.40
55064;DHT22;40963;52.168;21.296;2022-08-03T12:54:58;26.60;65.10
55064;DHT22;40963;52.168;21.296;2022-08-03T12:57:24;26.50;66.60
55064;DHT22;40963;52.168;21.296;2022-08-03T12:59:50;26.40;67.40
55064;DHT22;40963;52.168;21.296;2022-08-03T13:02:21;26.30;67.60
55064;DHT22;40963;52.168;21.296;2022-08-03T13:04:48;26.30;67.70
55064;DHT22;40963;52.168;21.296;2022-08-03T13:07:15;26.20;67.80
55064;DHT22;40963;52.168;21.296;2022-08-03T13:09:52;26.20;67.60
55064;DHT22;40963;52.168;21.296;2022-08-03T13:12:23;26.20;67.10
55064;DHT22;40963;52.168;21.296;2022-08-03T13:14:52;26.30;66.70
55064;DHT22;40963;52.168;21.296;2022-08-03T13:17:19;26.40;66.20
55064;DHT22;40963;52.168;21.296;2022-08-03T13:19:46;26.40;65.40
55064;DHT22;40963;52.168;21.296;2022-08-03T13:22:31;26.50;65.00
55064;DHT22;40963;52.168;21.296;2022-08-03T13:24:58;26.40;65.00
55064;DHT22;40963;52.168;21.296;2022-08-03T13:27:26;26.50;65.30
55064;DHT22;40963;52.168;21.296;2022-08-03T13:29:52;26.50;65.50
55064;DHT22;40963;52.168;21.296;2022-08-03T13:32:18;26.40;65.90
55064;DHT22;40963;52.168;21.296;2022-08-03T13:34:44;26.40;66.50
55064;DHT22;40963;52.168;21.296;2022-08-03T13:37:10;26.40;67.40
55064;DHT22;40963;52.168;21.296;2022-08-03T13:39:37;26.40;68.90
55064;DHT22;40963;52.168;21.296;2022-08-03T13:42:03;26.40;70.40
55064;DHT22;40963;52.168;21.296;2022-08-03T13:44:30;26.40;70.60
55064;DHT22;40963;52.168;21.296;2022-08-03T13:46:56;26.20;70.90
55064;DHT22;40963;52.168;21.296;2022-08-03T13:49:21;26.20;71.10
55064;DHT22;40963;52.168;21.296;2022-08-03T13:51:47;26.00;70.40
55064;DHT22;40963;52.168;21.296;2022-08-03T13:54:13;25.90;70.00
55064;DHT22;40963;52.168;21.296;2022-08-03T13:56:39;25.80;70.20
55064;DHT22;40963;52.168;21.296;2022-08-03T13:59:04;25.70;71.20
55064;DHT22;40963;52.168;21.296;2022-08-03T14:01:30;25.80;73.20
55064;DHT22;40963;52.168;21.296;2022-08-03T14:03:56;25.70;74.20
55064;DHT22;40963;52.168;21.296;2022-08-03T14:06:23;25.70;77.00
55064;DHT22;40963;52.168;21.296;2022-08-03T14:08:49;25.70;79.20
55064;DHT22;40963;52.168;21.296;2022-08-03T14:11:16;25.60;79.80
55064;DHT22;40963;52.168;21.296;2022-08-03T14:13:42;25.50;80.70
55064;DHT22;40963;52.168;21.296;2022-08-03T14:16:08;25.60;82.40
55064;DHT22;40963;52.168;21.296;2022-08-03T14:18:33;25.60;83.40
55064;DHT22;40963;52.168;21.296;2022-08-03T14:21:03;25.60;82.90
55064;DHT22;40963;52.168;21.296;2022-08-03T14:23:29;25.60;80.20
55064;DHT22;40963;52.168;21.296;2022-08-03T14:25:54;25.60;77.50
55064;DHT22;40963;52.168;21.296;2022-08-03T14:28:21;25.60;75.40
55064;DHT22;40963;52.168;21.296;2022-08-03T14:30:47;25.60;74.40
55064;DHT22;40963;52.168;21.296;2022-08-03T14:33:13;25.60;74.10
55064;DHT22;40963;52.168;21.296;2022-08-03T14:35:38;25.60;74.50
55064;DHT22;40963;52.168;21.296;2022-08-03T14:38:04;25.60;76.60
55064;DHT22;40963;52.168;21.296;2022-08-03T14:40:30;25.60;77.90
55064;DHT22;40963;52.168;21.296;2022-08-03T14:42:56;25.50;79.10
55064;DHT22;40963;52.168;21.296;2022-08-03T14:45:21;25.40;79.10
55064;DHT22;40963;52.168;21.296;2022-08-03T14:47:47;25.20;78.60
55064;DHT22;40963;52.168;21.296;2022-08-03T14:50:13;25.10;79.50
55064;DHT22;40963;52.168;21.296;2022-08-03T14:52:38;25.00;81.40
55064;DHT22;40963;52.168;21.296;2022-08-03T14:55:04;25.00;82.00
55064;DHT22;40963;52.168;21.296;2022-08-03T14:57:30;24.90;83.00
55064;DHT22;40963;52.168;21.296;2022-08-03T14:59:56;24.80;83.50
55064;DHT22;40963;52.168;21.296;2022-08-03T15:02:21;24.80;84.30
55064;DHT22;40963;52.168;21.296;2022-08-03T15:04:47;24.70;84.50
55064;DHT22;40963;52.168;21.296;2022-08-03T15:07:13;24.70;84.10
55064;DHT22;40963;52.168;21.296;2022-08-03T15:09:38;24.60;83.30
55064;DHT22;40963;52.168;21.296;2022-08-03T15:12:05;24.50;82.90
55064;DHT22;40963;52.168;21.296;2022-08-03T15:14:31;24.60;83.10
55064;DHT22;40963;52.168;21.296;2022-08-03T15:16:57;24.50;82.90
55064;DHT22;40963;52.168;21.296;2022-08-03T15:19:22;24.60;82.80
55064;DHT22;40963;52.168;21.296;2022-08-03T15:21:48;24.70;84.10
55064;DHT22;40963;52.168;21.296;2022-08-03T15:24:14;24.70;85.80
55064;DHT22;40963;52.168;21.296;2022-08-03T15:26:39;24.80;86.90
55064;DHT22;40963;52.168;21.296;2022-08-03T15:29:05;24.80;86.70
55064;DHT22;40963;52.168;21.296;2022-08-03T15:31:32;24.80;86.30
55064;DHT22;40963;52.168;21.296;2022-08-03T15:33:58;24.80;87.80
55064;DHT22;40963;52.168;21.296;2022-08-03T15:36:23;24.80;88.10
55064;DHT22;40963;52.168;21.296;2022-08-03T15:38:50;24.90;89.20
55064;DHT22;40963;52.168;21.296;2022-08-03T15:41:16;24.90;90.00
55064;DHT22;40963;52.168;21.296;2022-08-03T15:43:41;24.90;90.70
55064;DHT22;40963;52.168;21.296;2022-08-03T15:46:08;25.00;91.50
55064;DHT22;40963;52.168;21.296;2022-08-03T15:48:33;25.00;91.50
55064;DHT22;40963;52.168;21.296;2022-08-03T15:50:59;25.00;92.10